EGJA/ACI METAR and TAF weather

Enter ICAO airport designator
Station Type Date Time Source
EGJA METAR 2021/09/16 11:50 UTC NOAA

EGJA 161150Z 29007KT 240V320 9999 FEW006 18/16 Q1019


Station Type Date Time Source
EGJA Decoded METAR 2021/09/16 11:50 UTC NOAA

Alderney / Channel Island, United Kingdom (EGJA) 49-43N 002-12W
Sep 16, 2021 - 07:50 AM EDT / 2021.09.16 1150 UTC
Wind: from the WNW (290 degrees) at 8 MPH (7 KT) (direction variable):0
Visibility: greater than 7 mile(s):0
Sky conditions: mostly clear
Temperature: 64 F (18 C)
Dew Point: 60 F (16 C)
Relative Humidity: 88%
Pressure (altimeter): 30.09 in. Hg (1019 hPa)
ob: EGJA 161150Z 29007KT 240V320 9999 FEW006 18/16 Q1019
cycle: 12

Station Type Date Time Source
EGJA TAF UTC NOAA

Error!

Example: see airport list